Berrien Springs, MI

1:42 PM EDT on October 02, 2014 (GMT -0400)
Berrien Springs Public Schools | Change Station
CLOSE
Current Station
Personal Weather Station
Location: Oronoko Charter Township, MI
Elevation: 669 ft
Nearby Weather Stations

Elev 669 ft 41.95 °N, 86.35 °W | Updated 6 seconds ago

Overcast
Overcast
74.5 °F
Feels Like 76 °F
N
3.6
Wind Variable Wind from South
Gusts 4.9 mph

Today
High -- | Low -- °F
--% Chance of Precip.
Yesterday
High -- | Low -- °F
Precip. -- in
7:43 AM 7:25 PM
First Quarter, 60% visible
Pressure 29.86 in
Visibility 8.0 miles
Clouds Mostly Cloudy 2000 ft
Mostly Cloudy 7500 ft
Heat Index 76 °F
Dew Point 65 °F
Humidity 72%
Rainfall 0.02 in
Snow Depth Not available.
UV 3 out of 12
Pollen 3.40 out of 12
PM2.5 Moderate
Flu Activity Not available.
METAR KBEH 021653Z AUTO 15005KT 8SM BKN020 BKN075 21/17 A2987 RMK AO2 SLP112 T02060172 TSNO $

More Conditions Fewer Conditions

Pressure 29.86 in
Visibility 8.0 miles
Clouds Mostly Cloudy 2000 ft
Mostly Cloudy 7500 ft
Heat Index 76 °F
Dew Point 65 °F
Humidity 72%
Rainfall 0.02 in
Snow Depth Not available.
UV 3 out of 12
Pollen 3.40 out of 12
PM2.5 Moderate
Flu Activity Not available.
METAR KBEH 021653Z AUTO 15005KT 8SM BKN020 BKN075 21/17 A2987 RMK AO2 SLP112 T02060172 TSNO $

More Conditions Fewer Conditions

10-Day Weather Forecast

Almanac

Astronomy

Oct. 02, 2014 Rise Set
Actual Time 7:43 AM EDT 7:25 PM EDT
Civil Twilight 7:15 AM EDT 7:53 PM EDT
Nautical Twilight 6:43 AM EDT 8:25 PM EDT
Astronomical Twilight 6:10 AM EDT 8:57 PM EDT
Moon 3:36 PM EDT 12:54 AM EDT
Length of Visible Light 12h 37m
Length of Day
11h 41m
Tomorrow will be 2m 46s shorter.
First Quarter, 60% of the Moon is Illuminated
Today
First Quarter
Oct 8
Full
Oct 15
Last Quarter
Oct 23
New
Oct 30
First Quarter

Today's Extremes

State Highs State Lows

Community

WunderPhotos

Upload Photos

1,758,312 photos uploaded!

Nearby

Air Quality

  Air Quality AQ Index Pollutant
Yesterday Good
PM2.5
Current Moderate
PM2.5
Thursday Good
OZONE
Thursday Good
PM2.5
Friday Good
OZONE
Friday Good
PM2.5
Saturday Good
OZONE
Saturday Good
PM2.5

Snow Depth

Station Depth Elevation
No new snow has been reported.

Earthquake Activity

City Distance Mag. Time & Date
No recent earthquake activity has been reported nearby.
Minimum magnitude displayed is 2.5.

Coastal Water Temperatures

Place Temperature
Holland, MI 61.0 °F

Nearby Weather Stations